Time;durP1;ratioP1;P1;durP2;ratioP2;P2;SDS_P1;SDS_P2;PMS_P1;PMS_P2;Temp;Humidity;BMP_temperature;BMP_pressure;BME280_temperature;BME280_humidity;BME280_pressure;Samples;Min_cycle;Max_cycle;Signal;HPM_P1;HPM_P2
2021/06/20 00:08:22;;;;;;;18.38;11.30;;;22.30;99.90;;;;;;21153395;28;20044;-80
2021/06/20 00:18:22;;;;;;;;;;;22.20;99.90;;;;;;21152593;28;20036;-79
2021/06/20 00:28:23;;;;;;;32.27;9.70;;;22.30;99.90;;;;;;21134533;28;19957;-82
2021/06/20 00:38:24;;;;;;;30.53;9.20;;;22.90;99.90;;;;;;21122932;28;20266;-84
2021/06/20 00:48:25;;;;;;;27.43;7.47;;;23.40;99.90;;;;;;21115181;28;20064;-83
2021/06/20 00:58:26;;;;;;;27.37;5.80;;;23.50;99.90;;;;;;21150950;28;20476;-80
2021/06/20 01:08:30;;;;;;;11.93;2.75;;;23.30;99.90;;;;;;21170223;28;20518;-80
2021/06/20 01:18:31;;;;;;;11.13;3.63;;;22.90;99.90;;;;;;21168468;28;20036;-80
2021/06/20 01:28:41;;;;;;;8.43;3.27;;;22.70;99.90;;;;;;21167708;28;20032;-81
2021/06/20 01:38:42;;;;;;;11.77;2.28;;;22.60;99.90;;;;;;21164506;28;20044;-81
2021/06/20 01:48:43;;;;;;;11.20;2.50;;;22.20;99.90;;;;;;21163807;28;20503;-80
2021/06/20 01:58:44;;;;;;;7.43;1.93;;;22.00;99.90;;;;;;21163903;28;20548;-82
2021/06/20 02:08:44;;;;;;;4.80;1.53;;;21.80;99.90;;;;;;21172872;28;20468;-80
2021/06/20 02:18:45;;;;;;;10.40;2.10;;;21.30;99.90;;;;;;21174383;28;20085;-80
2021/06/20 02:28:46;;;;;;;7.13;1.90;;;21.00;99.90;;;;;;21172741;28;20542;-81
2021/06/20 02:38:47;;;;;;;5.50;1.97;;;20.70;99.90;;;;;;21174121;28;20515;-80
2021/06/20 02:48:48;;;;;;;3.37;1.57;;;20.80;99.90;;;;;;21169453;28;20039;-81
2021/06/20 02:58:50;;;;;;;4.83;2.00;;;20.80;99.90;;;;;;21172443;28;20366;-79
2021/06/20 03:08:51;;;;;;;7.25;1.98;;;20.60;99.90;;;;;;21184184;28;20101;-81
2021/06/20 03:18:52;;;;;;;;;;;20.50;99.90;;;;;;21187930;28;20043;-80
2021/06/20 03:28:53;;;;;;;6.73;2.20;;;19.80;99.90;;;;;;21184946;28;19912;-81
2021/06/20 03:38:54;;;;;;;5.40;2.10;;;19.60;99.90;;;;;;21165500;28;20311;-80
2021/06/20 03:48:55;;;;;;;;;;;19.60;99.90;;;;;;21184917;28;20044;-80
2021/06/20 03:58:56;;;;;;;7.07;2.17;;;19.80;99.90;;;;;;21186114;28;19911;-80
2021/06/20 04:08:57;;;;;;;11.57;2.90;;;19.80;99.90;;;;;;21186265;28;20296;-81
2021/06/20 04:19:00;;;;;;;11.23;2.77;;;19.70;99.90;;;;;;21180430;28;20039;-82
2021/06/20 04:29:01;;;;;;;8.65;2.88;;;19.10;99.90;;;;;;21164512;28;20039;-80
2021/06/20 04:39:06;;;;;;;9.70;2.93;;;19.00;99.90;;;;;;21160376;28;20066;-80
2021/06/20 04:49:09;;;;;;;9.73;3.30;;;19.00;99.90;;;;;;21175056;28;20120;-81
2021/06/20 04:59:10;;;;;;;9.90;3.58;;;19.40;99.90;;;;;;21170122;28;20044;-81
2021/06/20 05:09:11;;;;;;;16.27;3.07;;;19.30;99.90;;;;;;21169801;28;20050;-83
2021/06/20 05:19:12;;;;;;;9.07;2.30;;;19.50;99.90;;;;;;21168146;28;20040;-81
2021/06/20 05:29:13;;;;;;;7.10;2.70;;;19.70;99.90;;;;;;21165662;28;20044;-80
2021/06/20 05:39:14;;;;;;;5.60;2.60;;;19.50;99.90;;;;;;21164342;28;20108;-80
2021/06/20 05:49:15;;;;;;;6.72;3.33;;;19.80;99.90;;;;;;21145732;28;20496;-80
2021/06/20 05:59:16;;;;;;;8.50;2.33;;;19.90;99.90;;;;;;21156490;28;20449;-80
2021/06/20 06:09:17;;;;;;;6.87;2.30;;;19.80;99.90;;;;;;21166609;28;20043;-80
2021/06/20 06:19:18;;;;;;;6.53;2.43;;;19.70;99.90;;;;;;21182150;28;20040;-80
2021/06/20 06:29:18;;;;;;;11.57;2.43;;;19.80;99.90;;;;;;21162366;28;20506;-80
2021/06/20 06:39:20;;;;;;;5.97;2.50;;;20.00;99.90;;;;;;21163394;28;20088;-83
2021/06/20 06:49:21;;;;;;;;;;;20.40;99.90;;;;;;21164187;28;20043;-86
2021/06/20 06:59:22;;;;;;;7.80;2.93;;;20.50;99.90;;;;;;21159157;28;19964;-81
2021/06/20 07:09:23;;;;;;;5.73;2.30;;;20.90;99.90;;;;;;21112242;28;20289;-82
2021/06/20 07:19:24;;;;;;;6.43;2.10;;;21.30;99.90;;;;;;21128420;28;20411;-82
2021/06/20 07:29:24;;;;;;;6.07;2.10;;;21.40;99.90;;;;;;21156823;28;20444;-78
2021/06/20 07:39:25;;;;;;;10.97;2.63;;;21.10;99.90;;;;;;21109377;28;20036;-80
2021/06/20 07:49:26;;;;;;;9.10;3.10;;;21.40;99.90;;;;;;21123976;27;20121;-83
2021/06/20 07:59:27;;;;;;;5.77;2.50;;;21.40;99.90;;;;;;21091471;27;20054;-83
2021/06/20 08:09:28;;;;;;;6.90;2.70;;;21.20;99.90;;;;;;21107195;28;20067;-82
2021/06/20 08:19:29;;;;;;;12.20;2.13;;;21.40;99.90;;;;;;21092151;28;20131;-81
2021/06/20 08:29:30;;;;;;;6.27;2.33;;;22.20;99.90;;;;;;21102005;28;20044;-83
2021/06/20 08:39:31;;;;;;;6.97;1.75;;;23.10;99.90;;;;;;21086466;28;20278;-85
2021/06/20 08:49:34;;;;;;;5.57;1.70;;;23.50;99.90;;;;;;21093311;28;20066;-85
2021/06/20 08:59:34;;;;;;;15.98;2.83;;;23.50;99.90;;;;;;21061515;28;20458;-85
2021/06/20 09:09:38;;;;;;;3.57;1.50;;;23.20;99.90;;;;;;21075729;28;20445;-85
2021/06/20 09:19:38;;;;;;;6.97;2.35;;;23.70;99.90;;;;;;21039997;28;20505;-87
2021/06/20 09:29:40;;;;;;;4.55;1.30;;;24.90;99.90;;;;;;21071851;28;20396;-82
2021/06/20 09:39:41;;;;;;;11.30;2.10;;;25.20;99.90;;;;;;21098215;28;20460;-81
2021/06/20 09:49:42;;;;;;;;;;;25.40;99.90;;;;;;21084414;28;20048;-82
2021/06/20 10:00:05;;;;;;;5.80;1.47;;;26.20;99.90;;;;;;21097596;28;20406;-80
2021/06/20 10:10:13;;;;;;;4.68;1.25;;;26.30;99.90;;;;;;21093782;28;20040;-83
2021/06/20 10:20:15;;;;;;;5.68;1.60;;;27.30;99.90;;;;;;21072664;28;20040;-83
2021/06/20 10:30:22;;;;;;;10.43;1.77;;;27.90;99.90;;;;;;21082211;28;20044;-80
2021/06/20 10:40:33;;;;;;;5.28;1.23;;;27.60;99.90;;;;;;21077895;28;20050;-84
2021/06/20 10:50:37;;;;;;;11.02;1.65;;;28.00;99.90;;;;;;21129673;28;20047;-86
2021/06/20 11:00:38;;;;;;;12.80;1.92;;;28.20;99.90;;;;;;21138240;28;20051;-85
2021/06/20 11:10:39;;;;;;;16.90;2.28;;;28.80;99.90;;;;;;21158601;28;20067;-86
2021/06/20 11:20:49;;;;;;;17.52;3.33;;;29.40;99.90;;;;;;21140875;28;20496;-82
2021/06/20 11:30:50;;;;;;;14.38;3.08;;;29.50;99.90;;;;;;21153992;28;20043;-81
2021/06/20 11:40:52;;;;;;;26.48;4.20;;;29.30;99.90;;;;;;21134691;28;20043;-81
2021/06/20 11:50:54;;;;;;;15.98;3.90;;;29.30;99.90;;;;;;21134233;28;20036;-81
2021/06/20 12:00:55;;;;;;;25.40;3.33;;;30.00;99.90;;;;;;21107910;27;20108;-82
2021/06/20 12:10:56;;;;;;;17.08;4.13;;;29.20;99.90;;;;;;21115575;28;20047;-79
2021/06/20 12:20:57;;;;;;;16.88;3.75;;;28.90;99.90;;;;;;21135136;22;20130;-76
2021/06/20 12:30:58;;;;;;;22.10;3.88;;;29.60;99.90;;;;;;21122396;28;20047;-76
2021/06/20 12:40:59;;;;;;;25.67;3.70;;;30.20;99.90;;;;;;21145610;28;20390;-77
2021/06/20 12:51:00;;;;;;;23.08;3.65;;;30.00;99.90;;;;;;21145100;28;20092;-77
2021/06/20 13:01:03;;;;;;;23.02;3.67;;;30.50;99.90;;;;;;21135048;28;20085;-77
2021/06/20 13:11:04;;;;;;;36.97;5.68;;;28.90;99.90;;;;;;21147645;28;20061;-77
2021/06/20 13:21:05;;;;;;;25.77;4.65;;;28.00;99.90;;;;;;21129440;28;20040;-77
2021/06/20 13:31:06;;;;;;;40.67;5.40;;;28.00;99.90;;;;;;21148921;28;20147;-77
2021/06/20 13:41:07;;;;;;;39.08;5.15;;;27.90;99.90;;;;;;21146580;28;20108;-78
2021/06/20 13:51:08;;;;;;;39.70;6.70;;;27.40;99.90;;;;;;21150521;28;20042;-77
2021/06/20 14:01:09;;;;;;;35.00;5.57;;;26.70;99.90;;;;;;21148254;28;20031;-77
2021/06/20 14:11:10;;;;;;;27.35;4.80;;;26.40;99.90;;;;;;21140870;28;20038;-77
2021/06/20 14:21:11;;;;;;;31.67;4.93;;;26.10;99.90;;;;;;21151397;28;20040;-77
2021/06/20 14:31:12;;;;;;;;;;;26.00;99.90;;;;;;21153604;28;20043;-77
2021/06/20 14:41:13;;;;;;;21.58;5.40;;;25.90;99.90;;;;;;21157145;28;19919;-76
2021/06/20 14:51:14;;;;;;;;;;;25.70;99.90;;;;;;21167402;28;20052;-77
2021/06/20 15:01:15;;;;;;;23.05;5.88;;;25.60;99.90;;;;;;21161159;28;19921;-76
2021/06/20 15:11:15;;;;;;;;;;;25.20;99.90;;;;;;21156879;28;20044;-77
2021/06/20 15:21:16;;;;;;;23.57;5.10;;;24.90;99.90;;;;;;21159978;28;20629;-77
2021/06/20 15:31:17;;;;;;;26.73;5.80;;;23.60;99.90;;;;;;21154427;28;20369;-77
2021/06/20 15:41:21;;;;;;;24.97;5.70;;;21.90;99.90;;;;;;21163087;28;20062;-77
2021/06/20 15:51:22;;;;;;;26.52;6.68;;;21.30;99.90;;;;;;21157165;28;20039;-77
2021/06/20 16:01:23;;;;;;;23.30;5.40;;;20.70;99.90;;;;;;21157403;28;20103;-79
2021/06/20 16:11:24;;;;;;;30.33;5.77;;;20.50;99.90;;;;;;21163556;28;20067;-78
2021/06/20 16:21:25;;;;;;;23.50;5.60;;;20.30;99.90;;;;;;21165811;28;20039;-77
2021/06/20 16:31:26;;;;;;;16.93;4.20;;;20.50;99.90;;;;;;21159127;28;20084;-77
2021/06/20 16:41:27;;;;;;;17.30;4.07;;;20.90;99.90;;;;;;21158193;28;20066;-80
2021/06/20 16:51:28;;;;;;;20.53;3.60;;;20.60;99.90;;;;;;21163015;28;20039;-80
2021/06/20 17:01:29;;;;;;;22.53;3.80;;;20.60;99.90;;;;;;21140716;28;20075;-78
2021/06/20 17:11:30;;;;;;;16.97;5.20;;;21.00;99.90;;;;;;21153895;28;20039;-78
2021/06/20 17:21:31;;;;;;;18.30;7.63;;;20.10;99.90;;;;;;21135589;28;20047;-78
2021/06/20 17:31:33;;;;;;;25.67;7.33;;;19.80;99.90;;;;;;21138001;28;20071;-78
2021/06/20 17:41:34;;;;;;;19.52;7.35;;;20.10;99.90;;;;;;21160229;28;20180;-78
2021/06/20 17:51:35;;;;;;;14.18;3.10;;;19.80;99.90;;;;;;21177599;28;20031;-79
2021/06/20 18:01:36;;;;;;;10.50;2.00;;;19.80;99.90;;;;;;21172648;28;20039;-77
2021/06/20 18:11:38;;;;;;;10.83;1.70;;;18.90;99.90;;;;;;21164698;28;20104;-78
2021/06/20 18:21:40;;;;;;;12.02;1.88;;;18.30;99.90;;;;;;21122903;22;20063;-75
2021/06/20 18:31:41;;;;;;;20.35;2.58;;;17.40;99.90;;;;;;20804478;28;20124;-76
2021/06/20 18:41:43;;;;;;;7.03;1.63;;;17.30;99.90;;;;;;20854133;28;20675;-75
2021/06/20 18:51:44;;;;;;;8.27;1.77;;;17.40;99.90;;;;;;20880037;28;20041;-75
2021/06/20 19:01:45;;;;;;;16.33;2.13;;;17.10;99.90;;;;;;20882478;28;20045;-75
2021/06/20 19:11:46;;;;;;;13.07;2.23;;;17.40;99.90;;;;;;20881515;28;20041;-76
2021/06/20 19:21:47;;;;;;;13.43;2.63;;;17.20;99.90;;;;;;20904749;28;20040;-76
2021/06/20 19:31:49;;;;;;;11.10;2.57;;;16.80;99.90;;;;;;21039385;28;20044;-76
2021/06/20 19:41:49;;;;;;;;;;;16.80;99.90;;;;;;21057448;28;20036;-76
2021/06/20 19:51:50;;;;;;;11.45;2.35;;;17.00;99.90;;;;;;21060394;28;19915;-76
2021/06/20 20:01:52;;;;;;;23.73;2.40;;;16.50;99.90;;;;;;21063923;28;20036;-76
2021/06/20 20:11:53;;;;;;;10.30;2.22;;;16.40;99.90;;;;;;21001557;28;20123;-78
2021/06/20 20:21:55;;;;;;;13.37;3.10;;;16.60;99.90;;;;;;21051251;28;20119;-77
2021/06/20 20:31:56;;;;;;;13.02;1.95;;;16.70;99.90;;;;;;21043215;28;20044;-77
2021/06/20 20:41:57;;;;;;;12.80;2.20;;;16.10;99.90;;;;;;21063618;28;20062;-76
2021/06/20 20:51:58;;;;;;;15.03;2.93;;;16.00;99.90;;;;;;21038997;28;20486;-76
2021/06/20 21:01:59;;;;;;;9.40;1.93;;;15.80;99.90;;;;;;21036612;28;20046;-76
2021/06/20 21:12:00;;;;;;;13.00;2.07;;;16.20;99.90;;;;;;21036549;28;20052;-76
2021/06/20 21:22:05;;;;;;;12.47;3.30;;;16.20;99.90;;;;;;21037788;28;20067;-76
2021/06/20 21:32:06;;;;;;;16.00;2.47;;;16.30;99.90;;;;;;21065254;28;20128;-76
2021/06/20 21:42:07;;;;;;;14.53;2.40;;;16.30;99.90;;;;;;21075404;28;20043;-76
2021/06/20 21:52:08;;;;;;;13.50;2.90;;;16.20;99.90;;;;;;21045522;28;20036;-76
2021/06/20 22:02:08;;;;;;;8.47;2.27;;;16.20;99.90;;;;;;21075223;28;20441;-77
2021/06/20 22:12:15;;;;;;;7.27;2.97;;;16.10;99.90;;;;;;21073708;28;20028;-77
2021/06/20 22:22:16;;;;;;;18.38;3.22;;;16.00;99.90;;;;;;21073390;28;20102;-77
2021/06/20 22:32:21;;;;;;;16.70;3.30;;;16.20;99.90;;;;;;21060111;28;20437;-76
2021/06/20 22:42:22;;;;;;;13.10;2.28;;;16.20;99.90;;;;;;21058913;28;20036;-76
2021/06/20 22:52:23;;;;;;;12.27;1.97;;;16.20;99.90;;;;;;21070562;28;20048;-76
2021/06/20 23:02:24;;;;;;;8.93;2.00;;;16.10;99.90;;;;;;21069062;28;20036;-75
2021/06/20 23:12:25;;;;;;;10.53;2.20;;;16.10;99.90;;;;;;21087131;28;20093;-76
2021/06/20 23:22:26;;;;;;;16.23;3.60;;;16.10;99.90;;;;;;21068248;28;20096;-76
2021/06/20 23:32:27;;;;;;;20.33;3.30;;;15.90;99.90;;;;;;21085759;28;20040;-76
2021/06/20 23:42:28;;;;;;;15.00;3.73;;;16.10;99.90;;;;;;21084917;28;20129;-76
2021/06/20 23:52:29;;;;;;;15.70;4.63;;;16.10;99.90;;;;;;21083992;28;20036;-76
